sensor_id;sensor_type;location;lat;lon;timestamp;pressure;altitude;pressure_sealevel;temperature;humidity
38253;BME280;24785;52.372;20.672;2023-06-10T00:01:00;100702.59;;;18.11;55.72
38253;BME280;24785;52.372;20.672;2023-06-10T00:11:21;100682.13;;;17.97;54.17
38253;BME280;24785;52.372;20.672;2023-06-10T00:21:22;100695.16;;;17.69;54.71
38253;BME280;24785;52.372;20.672;2023-06-10T00:31:25;100698.63;;;17.29;54.75
38253;BME280;24785;52.372;20.672;2023-06-10T00:41:29;100698.06;;;17.10;54.46
38253;BME280;24785;52.372;20.672;2023-06-10T00:51:30;100691.72;;;16.92;55.51
38253;BME280;24785;52.372;20.672;2023-06-10T01:01:31;100701.84;;;16.64;56.35
38253;BME280;24785;52.372;20.672;2023-06-10T01:21:58;100708.88;;;16.29;59.11
38253;BME280;24785;52.372;20.672;2023-06-10T01:32:09;100716.03;;;16.12;60.72
38253;BME280;24785;52.372;20.672;2023-06-10T01:42:12;100728.53;;;16.08;61.77
38253;BME280;24785;52.372;20.672;2023-06-10T01:52:13;100720.56;;;15.75;63.55
38253;BME280;24785;52.372;20.672;2023-06-10T02:02:14;100742.97;;;15.62;65.25
38253;BME280;24785;52.372;20.672;2023-06-10T02:12:15;100740.47;;;15.33;66.92
38253;BME280;24785;52.372;20.672;2023-06-10T02:22:16;100755.47;;;15.25;68.07
38253;BME280;24785;52.372;20.672;2023-06-10T02:32:17;100753.06;;;15.24;69.03
38253;BME280;24785;52.372;20.672;2023-06-10T02:42:18;100760.97;;;15.34;69.26
38253;BME280;24785;52.372;20.672;2023-06-10T02:52:19;100771.19;;;15.37;70.05
38253;BME280;24785;52.372;20.672;2023-06-10T03:02:21;100780.19;;;15.65;69.64
38253;BME280;24785;52.372;20.672;2023-06-10T03:12:22;100774.47;;;16.08;68.23
38253;BME280;24785;52.372;20.672;2023-06-10T03:22:23;100776.81;;;17.22;64.74
38253;BME280;24785;52.372;20.672;2023-06-10T03:32:23;100780.34;;;18.42;60.68
38253;BME280;24785;52.372;20.672;2023-06-10T03:42:24;100779.53;;;19.45;57.67
38253;BME280;24785;52.372;20.672;2023-06-10T03:52:26;100776.75;;;19.71;56.58
38253;BME280;24785;52.372;20.672;2023-06-10T04:02:26;100782.34;;;20.33;54.27
38253;BME280;24785;52.372;20.672;2023-06-10T04:12:27;100791.56;;;19.82;55.71
38253;BME280;24785;52.372;20.672;2023-06-10T04:22:28;100801.22;;;20.09;54.55
38253;BME280;24785;52.372;20.672;2023-06-10T04:32:29;100791.75;;;20.15;54.45
38253;BME280;24785;52.372;20.672;2023-06-10T04:42:30;100783.19;;;20.75;53.47
38253;BME280;24785;52.372;20.672;2023-06-10T04:52:31;100799.91;;;21.28;51.06
38253;BME280;24785;52.372;20.672;2023-06-10T05:02:32;100807.25;;;20.94;52.17
38253;BME280;24785;52.372;20.672;2023-06-10T05:12:33;100824.16;;;19.99;54.98
38253;BME280;24785;52.372;20.672;2023-06-10T05:22:34;100835.50;;;20.31;55.63
38253;BME280;24785;52.372;20.672;2023-06-10T05:32:35;100836.84;;;19.87;56.51
38253;BME280;24785;52.372;20.672;2023-06-10T05:42:36;100828.50;;;20.59;55.39
38253;BME280;24785;52.372;20.672;2023-06-10T05:52:36;100836.91;;;20.07;55.88
38253;BME280;24785;52.372;20.672;2023-06-10T06:02:38;100840.13;;;20.48;54.15
38253;BME280;24785;52.372;20.672;2023-06-10T06:12:38;100842.56;;;20.02;56.77
38253;BME280;24785;52.372;20.672;2023-06-10T06:22:39;100846.69;;;19.62;57.69
38253;BME280;24785;52.372;20.672;2023-06-10T06:32:40;100853.09;;;19.57;59.11
38253;BME280;24785;52.372;20.672;2023-06-10T06:42:41;100857.19;;;19.72;58.83
38253;BME280;24785;52.372;20.672;2023-06-10T06:52:42;100858.06;;;20.02;58.04
38253;BME280;24785;52.372;20.672;2023-06-10T07:02:42;100866.47;;;20.56;56.18
38253;BME280;24785;52.372;20.672;2023-06-10T07:12:43;100868.78;;;20.95;55.17
38253;BME280;24785;52.372;20.672;2023-06-10T07:22:44;100876.25;;;20.78;55.89
38253;BME280;24785;52.372;20.672;2023-06-10T07:32:45;100878.63;;;20.58;56.25
38253;BME280;24785;52.372;20.672;2023-06-10T07:42:46;100890.91;;;20.43;56.65
38253;BME280;24785;52.372;20.672;2023-06-10T07:52:47;100895.38;;;20.31;56.69
38253;BME280;24785;52.372;20.672;2023-06-10T08:02:48;100885.81;;;20.63;54.63
38253;BME280;24785;52.372;20.672;2023-06-10T08:12:48;100890.41;;;21.42;53.36
38253;BME280;24785;52.372;20.672;2023-06-10T08:22:49;100883.19;;;21.71;51.40
38253;BME280;24785;52.372;20.672;2023-06-10T08:32:51;100882.34;;;21.79;50.46
38253;BME280;24785;52.372;20.672;2023-06-10T08:53:30;100876.50;;;22.13;46.00
38253;BME280;24785;52.372;20.672;2023-06-10T09:03:33;100882.41;;;22.64;43.89
38253;BME280;24785;52.372;20.672;2023-06-10T09:13:35;100869.00;;;22.47;43.47
38253;BME280;24785;52.372;20.672;2023-06-10T09:23:37;100866.28;;;23.39;41.64
38253;BME280;24785;52.372;20.672;2023-06-10T09:33:39;100873.06;;;23.30;43.51
38253;BME280;24785;52.372;20.672;2023-06-10T09:43:44;100860.22;;;23.74;42.00
38253;BME280;24785;52.372;20.672;2023-06-10T09:53:50;100856.69;;;24.21;41.56
38253;BME280;24785;52.372;20.672;2023-06-10T10:03:52;100851.91;;;23.86;40.91
38253;BME280;24785;52.372;20.672;2023-06-10T10:13:53;100859.31;;;23.70;38.52
38253;BME280;24785;52.372;20.672;2023-06-10T10:24:07;100854.56;;;23.67;35.59
38253;BME280;24785;52.372;20.672;2023-06-10T10:34:16;100852.00;;;23.90;35.83
38253;BME280;24785;52.372;20.672;2023-06-10T10:44:17;100852.38;;;24.20;35.93
38253;BME280;24785;52.372;20.672;2023-06-10T10:54:28;100845.47;;;24.26;35.26
38253;BME280;24785;52.372;20.672;2023-06-10T11:04:29;100829.03;;;24.41;32.75
38253;BME280;24785;52.372;20.672;2023-06-10T11:14:30;100832.84;;;24.37;34.16
38253;BME280;24785;52.372;20.672;2023-06-10T11:24:33;100836.72;;;24.36;32.71
38253;BME280;24785;52.372;20.672;2023-06-10T11:34:35;100824.09;;;24.15;33.34
38253;BME280;24785;52.372;20.672;2023-06-10T11:44:36;100821.81;;;24.68;32.96
38253;BME280;24785;52.372;20.672;2023-06-10T11:54:38;100808.06;;;24.49;31.21
38253;BME280;24785;52.372;20.672;2023-06-10T12:04:39;100815.78;;;24.12;33.05
38253;BME280;24785;52.372;20.672;2023-06-10T12:14:59;100820.03;;;24.25;34.30
38253;BME280;24785;52.372;20.672;2023-06-10T12:25:03;100816.47;;;24.40;34.97
38253;BME280;24785;52.372;20.672;2023-06-10T12:35:06;100794.44;;;24.53;34.94
38253;BME280;24785;52.372;20.672;2023-06-10T12:45:07;100796.63;;;24.82;35.97
38253;BME280;24785;52.372;20.672;2023-06-10T12:55:10;100791.28;;;24.89;36.58
38253;BME280;24785;52.372;20.672;2023-06-10T13:05:11;100772.59;;;25.56;37.14
38253;BME280;24785;52.372;20.672;2023-06-10T13:15:13;100796.50;;;24.40;38.43
38253;BME280;24785;52.372;20.672;2023-06-10T13:25:15;100761.88;;;25.70;37.48
38253;BME280;24785;52.372;20.672;2023-06-10T13:35:16;100775.72;;;24.74;37.05
38253;BME280;24785;52.372;20.672;2023-06-10T13:45:17;100765.50;;;25.32;35.57
38253;BME280;24785;52.372;20.672;2023-06-10T13:55:18;100767.91;;;25.57;34.50
38253;BME280;24785;52.372;20.672;2023-06-10T14:05:20;100767.97;;;24.41;35.62
38253;BME280;24785;52.372;20.672;2023-06-10T14:15:21;100766.53;;;25.24;35.76
38253;BME280;24785;52.372;20.672;2023-06-10T14:25:22;100759.06;;;25.02;34.24
38253;BME280;24785;52.372;20.672;2023-06-10T14:35:23;100748.56;;;25.27;34.85
38253;BME280;24785;52.372;20.672;2023-06-10T14:45:24;100763.31;;;25.19;36.75
38253;BME280;24785;52.372;20.672;2023-06-10T14:55:26;100748.28;;;25.55;35.58
38253;BME280;24785;52.372;20.672;2023-06-10T15:05:27;100760.56;;;25.19;37.20
38253;BME280;24785;52.372;20.672;2023-06-10T15:15:28;100765.44;;;25.97;36.61
38253;BME280;24785;52.372;20.672;2023-06-10T15:25:29;100776.47;;;25.09;37.98
38253;BME280;24785;52.372;20.672;2023-06-10T15:35:30;100764.03;;;27.71;33.48
38253;BME280;24785;52.372;20.672;2023-06-10T15:45:32;100783.00;;;27.43;34.32
38253;BME280;24785;52.372;20.672;2023-06-10T15:55:33;100786.66;;;25.74;37.78
38253;BME280;24785;52.372;20.672;2023-06-10T16:05:33;100797.75;;;25.16;38.11
38253;BME280;24785;52.372;20.672;2023-06-10T16:15:34;100796.13;;;24.76;39.76
38253;BME280;24785;52.372;20.672;2023-06-10T16:25:35;100806.50;;;24.32;38.47
38253;BME280;24785;52.372;20.672;2023-06-10T16:35:36;100809.69;;;24.03;40.72
38253;BME280;24785;52.372;20.672;2023-06-10T16:45:37;100815.72;;;23.93;41.56
38253;BME280;24785;52.372;20.672;2023-06-10T16:55:38;100838.69;;;23.16;42.46
38253;BME280;24785;52.372;20.672;2023-06-10T17:05:41;100839.53;;;23.33;42.68
38253;BME280;24785;52.372;20.672;2023-06-10T17:15:42;100850.56;;;23.08;43.43
38253;BME280;24785;52.372;20.672;2023-06-10T17:25:43;100859.88;;;22.55;44.18
38253;BME280;24785;52.372;20.672;2023-06-10T17:35:44;100871.16;;;22.29;45.39
38253;BME280;24785;52.372;20.672;2023-06-10T17:45:45;100878.09;;;22.39;45.86
38253;BME280;24785;52.372;20.672;2023-06-10T17:55:46;100889.72;;;22.36;45.85
38253;BME280;24785;52.372;20.672;2023-06-10T18:05:47;100909.34;;;22.17;45.65
38253;BME280;24785;52.372;20.672;2023-06-10T18:15:48;100917.81;;;21.91;47.17
38253;BME280;24785;52.372;20.672;2023-06-10T18:25:49;100933.44;;;21.69;48.22
38253;BME280;24785;52.372;20.672;2023-06-10T18:35:50;100944.75;;;21.59;48.48
38253;BME280;24785;52.372;20.672;2023-06-10T18:45:51;100965.00;;;21.38;49.11
38253;BME280;24785;52.372;20.672;2023-06-10T18:55:52;100968.78;;;20.95;50.65
38253;BME280;24785;52.372;20.672;2023-06-10T19:05:52;100997.59;;;20.66;51.84
38253;BME280;24785;52.372;20.672;2023-06-10T19:15:53;101022.19;;;20.49;52.05
38253;BME280;24785;52.372;20.672;2023-06-10T19:25:55;101031.19;;;20.41;52.58
38253;BME280;24785;52.372;20.672;2023-06-10T19:35:55;101035.50;;;20.25;53.48
38253;BME280;24785;52.372;20.672;2023-06-10T19:45:56;101050.59;;;19.88;55.25
38253;BME280;24785;52.372;20.672;2023-06-10T19:55:57;101058.22;;;19.51;56.37
38253;BME280;24785;52.372;20.672;2023-06-10T20:05:58;101062.34;;;18.92;58.44
38253;BME280;24785;52.372;20.672;2023-06-10T20:15:59;101070.75;;;18.50;60.06
38253;BME280;24785;52.372;20.672;2023-06-10T20:26:00;101079.22;;;18.27;61.13
38253;BME280;24785;52.372;20.672;2023-06-10T20:36:01;101082.78;;;18.13;61.41
38253;BME280;24785;52.372;20.672;2023-06-10T20:46:01;101093.00;;;18.39;60.32
38253;BME280;24785;52.372;20.672;2023-06-10T20:56:02;101094.13;;;18.15;61.40
38253;BME280;24785;52.372;20.672;2023-06-10T21:06:04;101086.88;;;17.88;61.85
38253;BME280;24785;52.372;20.672;2023-06-10T21:16:05;101093.88;;;17.67;62.01
38253;BME280;24785;52.372;20.672;2023-06-10T21:26:06;101111.34;;;17.34;63.27
38253;BME280;24785;52.372;20.672;2023-06-10T21:36:07;101112.75;;;17.04;63.07
38253;BME280;24785;52.372;20.672;2023-06-10T21:46:08;101133.72;;;17.12;61.56
38253;BME280;24785;52.372;20.672;2023-06-10T21:56:09;101126.94;;;16.95;61.85
38253;BME280;24785;52.372;20.672;2023-06-10T22:06:10;101123.72;;;16.80;61.10
38253;BME280;24785;52.372;20.672;2023-06-10T22:16:12;101142.34;;;16.67;60.72
38253;BME280;24785;52.372;20.672;2023-06-10T22:26:13;101146.50;;;16.41;61.37
38253;BME280;24785;52.372;20.672;2023-06-10T22:36:14;101152.03;;;16.17;62.15
38253;BME280;24785;52.372;20.672;2023-06-10T22:46:15;101158.22;;;15.99;62.94
38253;BME280;24785;52.372;20.672;2023-06-10T22:56:16;101158.22;;;15.80;63.85
38253;BME280;24785;52.372;20.672;2023-06-10T23:06:17;101160.38;;;15.54;64.17
38253;BME280;24785;52.372;20.672;2023-06-10T23:16:18;101160.56;;;15.39;64.38
38253;BME280;24785;52.372;20.672;2023-06-10T23:26:18;101157.56;;;15.17;64.92
38253;BME280;24785;52.372;20.672;2023-06-10T23:36:20;101162.94;;;14.93;64.53
38253;BME280;24785;52.372;20.672;2023-06-10T23:46:21;101163.13;;;14.72;64.58
38253;BME280;24785;52.372;20.672;2023-06-10T23:56:23;101172.88;;;14.63;64.67
